Pagrindinis puslapis
METAR-TAF:

METAR-TAF

Oro uostai :

Stokholmas-Arlanda, Švedija

platuma: 59-39N, ilguma: 017-57E, Aukštis: 38 m

Dabartinis oras

Ataskaita buvo paskelbta 31 minutes, ne 02:50 UTC
Vėjas 5 kt iš Pietų
Temperatūra -3°C
Drėgmė 93%
Slėgis 1009 hPa
Matomumas 10 km arba daugiau
Apsiniaukę ne aukštis 4600 ft

METAR: ESSA 190250Z 18005KT 9999 OVC046 M03/M04 Q1009 R19L/19//95 R08/19//95 NOSIG

Laikas: 04:21 (03:21 UTC)

Prognozė

Ataskaita buvo paskelbta 3 valandos ir 51 minutes, ne 23:30 UTC
Prognozė galioja nuo 19 metu 00 UTC su 19 metu 24 UTC
Vėjas 4 kt iš Pietų/Pietryčių
Matomumas 10 km arba daugiau
Apsiniaukę ne aukštis 4000 ft
Tikimybė 40%
nuo 19 metu 07 UTC su 19 metu 12 UTC
Su prošvaistėmis ne aukštis 800 ft
Laikinai
nuo 19 metu 12 UTC su 19 metu 24 UTC
Matomumas: 4000 m
Su prošvaistėmis ne aukštis 800 ft
sniegas

TAF: ESSA 182330Z 1900/1924 16004KT 9999 OVC040 PROB40 1907/1912 BKN008 TEMPO 1912/1924 4000 -SN BKN008

Orai ataskaitas ir orų prognozės (METAR, TAF).

turimą stotys yra geltonos ir raudonos taškus žemėlapyje.

Perkelti pele per norėdami pamatyti stoties vardą.

Tada spustelėkite, norėdami matyti oro stebėjimo ir prognozės.

Norėdami pakeisti žemėlapį: spustelėkite ant žalios mygtukų su juodo kryžiaus žemyn,; žalią mygtuką su brūkšneliu, jei norite nutolinti; arba žalių rodyklių gretimoms žemėlapius.


METAR-TAF: